Time;durP1;ratioP1;P1;durP2;ratioP2;P2;SDS_P1;SDS_P2;PMS_P1;PMS_P2;Temp;Humidity;BMP_temperature;BMP_pressure;BME280_temperature;BME280_humidity;BME280_pressure;Samples;Min_cycle;Max_cycle;Signal;HPM_P1;HPM_P2
2021/11/18 00:00:36;;;;;;;33.65;17.38;;;;;;;9.46;98.74;100503.44;5066002;28;20194;-75
2021/11/18 00:03:05;;;;;;;25.13;16.20;;;;;;;9.49;98.91;100509.53;5059538;28;20192;-75
2021/11/18 00:05:33;;;;;;;27.95;16.17;;;;;;;9.52;98.47;100504.06;5066821;28;20182;-75
2021/11/18 00:08:00;;;;;;;26.17;16.15;;;;;;;9.52;98.86;100497.78;5055380;28;20228;-75
2021/11/18 00:10:30;;;;;;;25.75;15.93;;;;;;;9.68;97.38;100509.72;5063217;28;20278;-75
2021/11/18 00:12:59;;;;;;;27.60;16.42;;;;;;;9.46;98.18;100515.06;5050654;28;20212;-75
2021/11/18 00:15:26;;;;;;;33.80;16.63;;;;;;;9.25;99.83;100523.94;5070641;28;20531;-74
2021/11/18 00:17:58;;;;;;;27.13;15.77;;;;;;;9.33;100.00;100520.00;5059478;28;20199;-75
2021/11/18 00:20:26;;;;;;;30.48;18.52;;;;;;;9.23;100.00;100512.38;5066465;28;20200;-73
2021/11/18 00:22:52;;;;;;;25.95;16.08;;;;;;;9.38;99.47;100518.06;5062837;28;20549;-76
2021/11/18 00:25:19;;;;;;;30.08;17.65;;;;;;;9.28;100.00;100519.31;5069944;28;20218;-75
2021/11/18 00:27:47;;;;;;;31.60;17.17;;;;;;;9.36;99.42;100519.91;5057877;28;20191;-73
2021/11/18 00:30:14;;;;;;;34.92;17.70;;;;;;;9.33;99.29;100520.00;5066757;28;20204;-75
2021/11/18 00:32:41;;;;;;;32.08;17.45;;;;;;;9.22;100.00;100521.38;5065857;28;20341;-75
2021/11/18 00:35:10;;;;;;;29.48;16.95;;;;;;;9.26;100.00;100523.00;5060908;28;20250;-76
2021/11/18 00:37:37;;;;;;;25.73;16.63;;;;;;;9.31;99.50;100519.19;5061028;28;20635;-75
2021/11/18 00:40:04;;;;;;;32.25;17.88;;;;;;;9.27;100.00;100522.06;5062920;28;20192;-75
2021/11/18 00:42:31;;;;;;;33.65;18.15;;;;;;;9.25;99.66;100519.44;5058035;28;20193;-75
2021/11/18 00:45:00;;;;;;;31.83;18.27;;;;;;;9.13;100.00;100511.84;5069008;28;20546;-75
2021/11/18 00:47:26;;;;;;;32.10;17.52;;;;;;;9.06;100.00;100513.88;5070160;28;20196;-75
2021/11/18 00:49:54;;;;;;;25.98;16.05;;;;;;;9.21;100.00;100511.56;5062480;28;20661;-75
2021/11/18 00:52:21;;;;;;;32.53;17.25;;;;;;;9.26;100.00;100521.19;5061949;28;20227;-75
2021/11/18 00:54:48;;;;;;;27.25;16.80;;;;;;;9.42;98.93;100510.72;5062248;28;20184;-75
2021/11/18 00:57:15;;;;;;;26.88;16.33;;;;;;;9.36;97.90;100522.59;5065453;28;20195;-75
2021/11/18 00:59:45;;;;;;;24.10;14.13;;;;;;;9.37;99.35;100523.47;5057708;28;20197;-75
2021/11/18 01:02:13;;;;;;;30.23;15.63;;;;;;;9.42;98.57;100518.78;5065699;28;20278;-74
2021/11/18 01:04:41;;;;;;;25.08;15.07;;;;;;;9.59;96.36;100532.47;5070047;28;20193;-75
2021/11/18 01:07:07;;;;;;;28.20;15.93;;;;;;;9.52;96.50;100532.75;5062234;28;20237;-75
2021/11/18 01:09:34;;;;;;;24.30;15.38;;;;;;;9.57;96.39;100538.84;5062141;28;20201;-76
2021/11/18 01:12:01;;;;;;;25.88;14.93;;;;;;;9.42;97.52;100537.59;5061886;28;20239;-74
2021/11/18 01:14:28;;;;;;;23.77;15.30;;;;;;;9.41;97.62;100535.88;5061607;28;20291;-74
2021/11/18 01:16:55;;;;;;;22.50;13.93;;;;;;;9.29;97.58;100539.88;5061459;28;20285;-75
2021/11/18 01:19:23;;;;;;;23.83;13.80;;;;;;;9.10;99.92;100522.72;5061454;28;20203;-76
2021/11/18 01:21:51;;;;;;;24.85;15.15;;;;;;;9.05;100.00;100519.31;5064875;28;20245;-74
2021/11/18 01:24:18;;;;;;;27.75;14.25;;;;;;;9.09;100.00;100542.44;5064819;28;20198;-74
2021/11/18 01:26:45;;;;;;;24.88;14.70;;;;;;;9.25;100.00;100543.63;5066233;28;20199;-74
2021/11/18 01:29:12;;;;;;;22.48;14.23;;;;;;;9.21;99.04;100539.31;5061202;28;20261;-74
2021/11/18 01:31:39;;;;;;;23.98;14.93;;;;;;;9.19;100.00;100522.34;5061518;28;20268;-74
2021/11/18 01:34:07;;;;;;;21.42;14.18;;;;;;;9.11;100.00;100524.44;5061408;28;20197;-74
2021/11/18 01:36:35;;;;;;;28.23;14.10;;;;;;;9.27;100.00;100514.91;5053968;28;20189;-74
2021/11/18 01:39:02;;;;;;;24.60;15.15;;;;;;;9.11;100.00;100514.59;5060932;28;20189;-74
2021/11/18 01:41:30;;;;;;;23.33;14.68;;;;;;;9.24;100.00;100528.44;5064359;28;20196;-76
2021/11/18 01:44:00;;;;;;;20.42;13.63;;;;;;;9.51;97.52;100534.56;5065461;28;20185;-75
2021/11/18 01:46:30;;;;;;;22.80;13.93;;;;;;;9.63;95.75;100543.94;5063749;28;20197;-75
2021/11/18 01:48:57;;;;;;;25.58;14.60;;;;;;;9.42;96.19;100542.13;5060882;28;20189;-75
2021/11/18 01:51:26;;;;;;;22.70;13.88;;;;;;;9.45;96.59;100533.91;5061444;28;20196;-75
2021/11/18 01:53:54;;;;;;;24.05;14.85;;;;;;;9.17;97.97;100540.34;5053065;28;20211;-75
2021/11/18 01:56:25;;;;;;;22.83;15.80;;;;;;;9.26;97.77;100542.69;5063829;28;20201;-75
2021/11/18 01:58:54;;;;;;;21.90;14.75;;;;;;;9.09;99.12;100539.75;5064927;28;20197;-75
2021/11/18 02:01:21;;;;;;;30.00;14.52;;;;;;;9.21;98.60;100533.94;5061398;28;20227;-74
2021/11/18 02:03:48;;;;;;;30.00;15.68;;;;;;;9.19;97.59;100536.66;5067520;28;20274;-76
2021/11/18 02:06:19;;;;;;;21.10;13.90;;;;;;;9.27;97.38;100532.81;5061675;28;20210;-75
2021/11/18 02:08:46;;;;;;;20.40;13.82;;;;;;;9.25;97.62;100542.72;5060658;28;20576;-75
2021/11/18 02:11:28;;;;;;;22.85;13.82;;;;;;;9.32;95.74;100545.16;5068762;28;20192;-75
2021/11/18 02:13:55;;;;;;;22.95;14.38;;;;;;;9.07;97.06;100544.31;5064211;28;20560;-75
2021/11/18 02:16:23;;;;;;;22.08;14.30;;;;;;;9.11;98.02;100557.59;5057074;28;20289;-75
2021/11/18 02:18:50;;;;;;;28.35;14.18;;;;;;;9.21;96.56;100554.56;5057059;28;20604;-75
2021/11/18 02:21:19;;;;;;;20.25;13.90;;;;;;;9.01;97.15;100549.91;5063807;28;20188;-75
2021/11/18 02:23:48;;;;;;;21.27;13.60;;;;;;;9.12;97.17;100559.34;5064954;28;20196;-75
2021/11/18 02:26:14;;;;;;;21.15;13.13;;;;;;;9.15;95.70;100567.25;5058828;28;20652;-75
2021/11/18 02:28:44;;;;;;;22.83;13.98;;;;;;;9.01;95.79;100571.41;5064133;28;20289;-75
2021/11/18 02:31:19;;;;;;;21.45;13.15;;;;;;;9.08;96.43;100572.94;5061356;28;20634;-75
2021/11/18 02:33:46;;;;;;;21.65;13.27;;;;;;;9.18;94.85;100572.53;5060781;28;20590;-75
2021/11/18 02:36:13;;;;;;;23.40;14.35;;;;;;;9.12;95.45;100571.91;5063252;28;20192;-75
2021/11/18 02:38:41;;;;;;;23.73;14.25;;;;;;;9.18;94.97;100575.22;5057349;28;20186;-75
2021/11/18 02:41:10;;;;;;;27.92;15.02;;;;;;;9.20;97.55;100580.53;5067220;28;20188;-75
2021/11/18 02:43:37;;;;;;;21.65;14.00;;;;;;;9.08;98.57;100575.63;5060955;28;20482;-75
2021/11/18 02:46:04;;;;;;;24.02;15.07;;;;;;;8.93;100.00;100577.03;5063990;28;20199;-75
2021/11/18 02:48:31;;;;;;;23.35;15.30;;;;;;;9.00;100.00;100575.00;5052644;28;20196;-75
2021/11/18 02:51:00;;;;;;;24.40;14.75;;;;;;;9.20;99.48;100561.72;5054378;28;20203;-76
2021/11/18 02:53:28;;;;;;;24.70;14.45;;;;;;;9.18;99.02;100569.88;5062473;28;20576;-75
2021/11/18 02:55:57;;;;;;;23.67;14.13;;;;;;;9.35;96.17;100562.97;5067320;28;20192;-75
2021/11/18 02:58:24;;;;;;;20.40;13.10;;;;;;;9.32;95.59;100572.03;5067987;28;20198;-75
2021/11/18 03:00:56;;;;;;;21.20;13.63;;;;;;;9.45;93.95;100574.25;5066666;28;20201;-75
2021/11/18 03:03:24;;;;;;;24.20;15.40;;;;;;;9.53;91.83;100577.53;5062026;28;20182;-75
2021/11/18 03:05:52;;;;;;;24.95;15.13;;;;;;;9.45;92.30;100587.69;5066103;28;20258;-75
2021/11/18 03:08:21;;;;;;;24.73;14.98;;;;;;;9.32;93.67;100604.28;5063820;28;20228;-75
2021/11/18 03:10:48;;;;;;;23.27;14.60;;;;;;;9.33;93.06;100592.59;5065285;28;20201;-75
2021/11/18 03:13:16;;;;;;;25.38;15.10;;;;;;;9.56;91.94;100596.22;5058530;28;20235;-75
2021/11/18 03:15:43;;;;;;;26.40;15.57;;;;;;;9.52;92.52;100589.19;5066712;28;20193;-75
2021/11/18 03:18:10;;;;;;;22.65;14.90;;;;;;;9.53;92.66;100594.53;5064076;28;20283;-75
2021/11/18 03:20:37;;;;;;;23.40;14.80;;;;;;;9.62;91.83;100589.75;5063780;28;20194;-75
2021/11/18 03:23:04;;;;;;;27.15;16.25;;;;;;;9.73;91.59;100603.66;5067700;28;20534;-75
2021/11/18 03:25:33;;;;;;;27.33;15.32;;;;;;;9.61;92.19;100605.00;5067772;28;20185;-75
2021/11/18 03:28:01;;;;;;;29.60;14.68;;;;;;;9.69;91.51;100605.56;5057163;28;20192;-75
2021/11/18 03:30:32;;;;;;;29.73;15.95;;;;;;;9.56;92.01;100602.47;5062883;28;20200;-75
2021/11/18 03:33:00;;;;;;;25.75;16.42;;;;;;;9.49;92.74;100606.34;5055987;28;20226;-75
2021/11/18 03:35:27;;;;;;;22.33;14.82;;;;;;;9.69;90.86;100613.66;5065847;28;20197;-74
2021/11/18 03:37:54;;;;;;;24.75;14.65;;;;;;;9.62;91.50;100608.56;5064046;28;20196;-74
2021/11/18 03:40:23;;;;;;;24.95;15.55;;;;;;;9.68;90.81;100614.59;5063663;28;20199;-75
2021/11/18 03:42:50;;;;;;;25.52;15.32;;;;;;;9.61;91.60;100615.78;5064143;28;20189;-74
2021/11/18 03:45:19;;;;;;;23.08;14.70;;;;;;;9.71;90.62;100616.28;5061728;28;20194;-76
2021/11/18 03:47:47;;;;;;;26.05;16.42;;;;;;;9.56;91.43;100610.53;5063724;28;20895;-76
2021/11/18 03:50:14;;;;;;;25.45;15.20;;;;;;;9.61;91.71;100615.78;5067094;28;20198;-76
2021/11/18 03:52:42;;;;;;;23.08;15.02;;;;;;;9.59;92.03;100605.06;5064462;28;20709;-76
2021/11/18 03:55:11;;;;;;;22.27;15.23;;;;;;;9.56;92.98;100620.41;5063455;28;20492;-75
2021/11/18 03:57:38;;;;;;;28.05;16.15;;;;;;;9.56;93.16;100625.78;5064757;28;20193;-75
2021/11/18 04:00:07;;;;;;;25.77;16.10;;;;;;;9.56;92.60;100621.28;5062290;28;20298;-75
2021/11/18 04:02:33;;;;;;;24.52;15.50;;;;;;;9.63;92.49;100626.44;5057250;28;20193;-73
2021/11/18 04:05:02;;;;;;;31.85;17.42;;;;;;;9.49;93.56;100629.66;5069417;28;20190;-74
2021/11/18 04:07:33;;;;;;;32.47;17.77;;;;;;;9.40;94.75;100620.97;5063394;28;20232;-73
2021/11/18 04:09:59;;;;;;;28.30;18.95;;;;;;;9.44;94.82;100628.97;5066653;28;20184;-76
2021/11/18 04:12:26;;;;;;;25.02;16.75;;;;;;;9.38;94.86;100625.56;5064931;28;20195;-75
2021/11/18 04:14:53;;;;;;;31.23;16.48;;;;;;;9.22;95.38;100627.03;5065978;28;20216;-75
2021/11/18 04:17:19;;;;;;;32.13;18.13;;;;;;;9.16;95.98;100629.97;5066387;28;20538;-75
2021/11/18 04:19:46;;;;;;;29.52;17.80;;;;;;;9.27;95.83;100635.84;5055361;28;20193;-75
2021/11/18 04:22:15;;;;;;;30.75;19.00;;;;;;;9.26;96.39;100633.19;5062704;28;20199;-75
2021/11/18 04:24:45;;;;;;;31.63;17.40;;;;;;;9.19;96.88;100627.16;5070379;28;20197;-75
2021/11/18 04:27:13;;;;;;;32.88;18.35;;;;;;;9.36;95.81;100630.13;5070315;28;20274;-75
2021/11/18 04:29:40;;;;;;;31.77;17.70;;;;;;;9.40;95.02;100629.06;5065920;28;20291;-75
2021/11/18 04:32:09;;;;;;;29.73;16.95;;;;;;;9.52;94.08;100626.84;5066152;28;20281;-75
2021/11/18 04:34:36;;;;;;;27.95;17.48;;;;;;;9.51;93.77;100623.28;5062990;28;20222;-74
2021/11/18 04:37:04;;;;;;;32.13;17.45;;;;;;;9.63;93.61;100624.63;5061082;28;20530;-76
2021/11/18 04:39:32;;;;;;;33.33;17.33;;;;;;;9.58;93.58;100616.72;5064066;28;20197;-75
2021/11/18 04:41:59;;;;;;;31.45;17.35;;;;;;;9.67;91.83;100612.81;5056287;28;20189;-74
2021/11/18 04:44:26;;;;;;;29.40;17.45;;;;;;;9.64;92.22;100615.66;5064702;28;20202;-75
2021/11/18 04:46:53;;;;;;;32.67;18.38;;;;;;;9.52;92.83;100626.84;5060228;28;20195;-75
2021/11/18 04:49:21;;;;;;;28.63;17.98;;;;;;;9.49;93.35;100621.59;5063362;28;20200;-74
2021/11/18 04:51:48;;;;;;;31.42;18.48;;;;;;;9.51;93.20;100619.72;5065397;28;20202;-76
2021/11/18 04:54:14;;;;;;;37.00;18.10;;;;;;;9.51;93.84;100625.09;5065119;28;20529;-74
2021/11/18 04:56:42;;;;;;;25.50;15.38;;;;;;;9.27;91.05;100627.78;5061252;28;20665;-75
2021/11/18 04:59:10;;;;;;;23.75;14.80;;;;;;;9.17;91.20;100613.78;5069475;28;20206;-76
2021/11/18 05:01:37;;;;;;;33.75;17.15;;;;;;;9.18;91.62;100626.28;5065352;28;20222;-74
2021/11/18 05:04:05;;;;;;;25.98;15.95;;;;;;;8.83;92.46;100627.53;5065146;28;20959;-75
2021/11/18 05:06:32;;;;;;;27.52;15.65;;;;;;;8.77;93.66;100625.94;5050474;28;20199;-74
2021/11/18 05:08:59;;;;;;;22.88;14.40;;;;;;;8.80;93.77;100633.00;5064863;28;20218;-76
2021/11/18 05:11:25;;;;;;;21.30;13.77;;;;;;;8.62;94.49;100634.50;5064831;28;20290;-75
2021/11/18 05:13:54;;;;;;;21.95;13.07;;;;;;;8.66;94.42;100627.22;5065973;28;20735;-75
2021/11/18 05:16:20;;;;;;;21.65;14.00;;;;;;;8.82;94.39;100625.78;5061291;28;20194;-74
2021/11/18 05:18:48;;;;;;;27.55;14.63;;;;;;;8.68;95.44;100638.78;5061707;28;20199;-74
2021/11/18 05:21:16;;;;;;;23.23;14.70;;;;;;;8.78;96.26;100634.88;5061355;28;20204;-75
2021/11/18 05:23:43;;;;;;;22.13;13.77;;;;;;;8.81;95.17;100636.56;5061490;28;20652;-75
2021/11/18 05:26:14;;;;;;;22.52;15.48;;;;;;;8.65;97.74;100638.91;5061232;28;20187;-76
2021/11/18 05:28:40;;;;;;;27.65;16.30;;;;;;;8.63;98.03;100649.69;5061545;28;20586;-75
2021/11/18 05:31:09;;;;;;;25.55;16.15;;;;;;;8.68;99.49;100654.91;5065414;28;20191;-75
2021/11/18 05:33:35;;;;;;;30.13;17.20;;;;;;;8.77;98.95;100654.59;5059109;28;20214;-75
2021/11/18 05:36:02;;;;;;;30.30;17.05;;;;;;;8.78;99.86;100653.66;5064103;28;20185;-75
2021/11/18 05:38:29;;;;;;;25.65;15.25;;;;;;;9.00;98.92;100660.97;5057606;28;20613;-76
2021/11/18 05:40:56;;;;;;;33.65;17.75;;;;;;;8.97;98.01;100668.19;5064674;28;20186;-75
2021/11/18 05:43:25;;;;;;;37.08;19.90;;;;;;;8.96;99.49;100657.53;5056000;28;20189;-75
2021/11/18 05:45:52;;;;;;;33.22;19.10;;;;;;;9.09;99.01;100674.09;5053405;28;20202;-75
2021/11/18 05:48:20;;;;;;;35.42;18.80;;;;;;;9.12;98.02;100674.88;5058665;28;20187;-75
2021/11/18 05:50:50;;;;;;;31.25;19.00;;;;;;;9.17;97.85;100674.72;5062574;28;20197;-75
2021/11/18 05:53:19;;;;;;;27.75;17.10;;;;;;;9.32;96.48;100679.53;5056541;28;20291;-74
2021/11/18 05:55:46;;;;;;;25.55;14.80;;;;;;;9.08;96.35;100678.59;5064141;28;20534;-75
2021/11/18 05:58:12;;;;;;;27.58;14.45;;;;;;;8.94;96.93;100678.19;5053095;28;20394;-76
2021/11/18 06:00:39;;;;;;;23.73;15.13;;;;;;;9.00;96.57;100671.72;5065212;28;20195;-75
2021/11/18 06:03:06;;;;;;;23.70;14.98;;;;;;;9.13;95.51;100678.44;5063757;28;20521;-75
2021/11/18 06:05:34;;;;;;;21.98;14.88;;;;;;;8.92;96.88;100675.56;5063872;28;20542;-75
2021/11/18 06:08:01;;;;;;;24.13;14.48;;;;;;;9.24;94.42;100670.00;5061810;28;20237;-74
2021/11/18 06:10:29;;;;;;;19.10;13.20;;;;;;;9.35;92.55;100678.56;5057804;28;20215;-74
2021/11/18 06:12:57;;;;;;;21.90;13.52;;;;;;;9.35;91.98;100674.03;5060085;28;20235;-75
2021/11/18 06:15:24;;;;;;;26.05;15.48;;;;;;;9.52;89.76;100669.88;5063316;28;20315;-75
2021/11/18 06:17:50;;;;;;;24.25;14.60;;;;;;;9.52;88.85;100678.84;5055211;28;20645;-74
2021/11/18 06:20:17;;;;;;;20.63;13.25;;;;;;;9.54;88.30;100679.66;5067000;28;20209;-75
2021/11/18 06:22:48;;;;;;;19.02;12.65;;;;;;;9.58;88.09;100683.97;5059703;28;20223;-76
2021/11/18 06:25:18;;;;;;;23.05;13.80;;;;;;;9.54;88.12;100676.97;5059465;28;20279;-74
2021/11/18 06:27:46;;;;;;;23.90;13.65;;;;;;;9.66;87.46;100688.19;5068454;28;20187;-75
2021/11/18 06:30:16;;;;;;;19.70;13.15;;;;;;;9.60;87.69;100678.53;5063046;28;20212;-75
2021/11/18 06:32:43;;;;;;;28.23;14.50;;;;;;;9.58;88.12;100680.41;5064301;28;20545;-75
2021/11/18 06:35:10;;;;;;;20.77;14.32;;;;;;;9.51;88.37;100677.06;5070435;28;20233;-75
2021/11/18 06:37:37;;;;;;;19.35;13.63;;;;;;;9.45;88.72;100682.69;5067341;28;20502;-75
2021/11/18 06:40:07;;;;;;;21.05;14.27;;;;;;;9.29;90.01;100679.63;5071648;28;20288;-75
2021/11/18 06:42:34;;;;;;;25.80;15.93;;;;;;;9.36;90.07;100681.19;5070985;28;20286;-75
2021/11/18 06:45:01;;;;;;;22.17;14.30;;;;;;;9.44;89.56;100677.34;5063781;28;20185;-74
2021/11/18 06:47:27;;;;;;;21.23;13.80;;;;;;;9.46;89.23;100681.72;5070763;28;20286;-76
2021/11/18 06:49:54;;;;;;;20.08;13.02;;;;;;;9.09;91.71;100682.16;5058576;28;20215;-75
2021/11/18 06:52:21;;;;;;;20.92;13.65;;;;;;;9.17;92.03;100685.47;5067874;28;20539;-75
2021/11/18 06:54:49;;;;;;;23.38;14.73;;;;;;;8.89;92.94;100688.22;5064289;28;20216;-74
2021/11/18 06:57:18;;;;;;;25.75;14.07;;;;;;;8.97;93.73;100697.75;5060870;28;20203;-74
2021/11/18 06:59:45;;;;;;;21.50;14.00;;;;;;;8.80;94.39;100702.84;5064023;28;20590;-75
2021/11/18 07:02:12;;;;;;;23.48;15.18;;;;;;;8.93;94.45;100714.03;5065976;28;20554;-76
2021/11/18 07:04:39;;;;;;;23.85;13.93;;;;;;;9.06;93.56;100714.50;5063429;28;20198;-75
2021/11/18 07:07:05;;;;;;;26.55;14.73;;;;;;;9.10;92.14;100711.66;5061629;28;20240;-76
2021/11/18 07:09:33;;;;;;;25.00;14.77;;;;;;;9.01;93.02;100717.34;5072470;28;20200;-74
2021/11/18 07:12:00;;;;;;;22.40;14.10;;;;;;;9.10;92.77;100713.47;5063847;28;20204;-75
2021/11/18 07:14:28;;;;;;;22.55;15.02;;;;;;;9.19;91.82;100722.09;5061730;28;20584;-75
2021/11/18 07:16:55;;;;;;;22.70;16.33;;;;;;;9.09;92.20;100717.06;5058550;28;20194;-75
2021/11/18 07:19:21;;;;;;;26.35;15.13;;;;;;;8.90;92.64;100723.06;5066746;28;20192;-75
2021/11/18 07:21:48;;;;;;;25.10;15.88;;;;;;;8.71;94.53;100721.94;5058215;28;20274;-75
2021/11/18 07:24:16;;;;;;;24.90;14.95;;;;;;;8.58;95.55;100724.13;5066393;28;20618;-75
2021/11/18 07:26:43;;;;;;;27.50;13.80;;;;;;;8.47;96.06;100737.88;5070626;28;20574;-76
2021/11/18 07:29:10;;;;;;;24.55;16.02;;;;;;;8.40;98.25;100740.78;5062704;28;20210;-74
2021/11/18 07:31:39;;;;;;;28.05;15.52;;;;;;;8.46;96.84;100749.56;5065858;28;20191;-74
2021/11/18 07:34:07;;;;;;;26.02;15.75;;;;;;;8.39;97.95;100747.06;5066044;28;20211;-75
2021/11/18 07:36:34;;;;;;;25.90;14.63;;;;;;;8.43;97.40;100749.63;5064652;28;20197;-75
2021/11/18 07:39:00;;;;;;;23.77;14.10;;;;;;;8.38;98.42;100756.06;5064910;28;20190;-76
2021/11/18 07:41:28;;;;;;;24.83;14.02;;;;;;;8.44;97.88;100753.22;5055058;28;20201;-75
2021/11/18 07:43:56;;;;;;;24.30;15.35;;;;;;;8.59;97.51;100757.22;5054415;28;20267;-75
2021/11/18 07:46:22;;;;;;;23.27;14.20;;;;;;;8.85;94.47;100751.91;5062626;28;20210;-75
2021/11/18 07:48:51;;;;;;;28.38;15.82;;;;;;;8.74;94.22;100762.97;5070288;28;20570;-74
2021/11/18 07:51:21;;;;;;;22.98;14.45;;;;;;;8.51;95.79;100757.47;5062697;28;20199;-74
2021/11/18 07:53:49;;;;;;;27.05;15.30;;;;;;;8.78;94.64;100758.41;5062181;28;20539;-75
2021/11/18 07:56:17;;;;;;;28.17;15.18;;;;;;;8.75;93.88;100759.38;5062914;28;20187;-76
2021/11/18 07:58:44;;;;;;;28.00;15.45;;;;;;;8.64;94.17;100772.28;5060322;28;20621;-76
2021/11/18 08:01:12;;;;;;;22.85;14.10;;;;;;;8.85;93.03;100768.03;5067444;28;20222;-75
2021/11/18 08:03:39;;;;;;;24.38;14.75;;;;;;;8.87;92.72;100771.53;5068760;28;20199;-75
2021/11/18 08:06:09;;;;;;;28.98;14.13;;;;;;;8.60;93.39;100767.06;5059918;28;20196;-75
2021/11/18 08:08:43;;;;;;;22.90;13.20;;;;;;;8.82;92.76;100768.13;5068844;28;20235;-75
2021/11/18 08:11:09;;;;;;;23.85;14.50;;;;;;;8.70;92.51;100772.06;5073406;28;20211;-76
2021/11/18 08:13:36;;;;;;;25.23;14.70;;;;;;;8.73;93.11;100782.72;5055293;28;20224;-75
2021/11/18 08:16:03;;;;;;;20.95;14.02;;;;;;;8.74;93.76;100780.91;5068289;28;20288;-76
2021/11/18 08:18:30;;;;;;;29.58;14.57;;;;;;;8.94;92.32;100782.97;5073845;28;20293;-76
2021/11/18 08:20:56;;;;;;;23.90;13.43;;;;;;;9.02;90.98;100782.69;5066273;28;20284;-76
2021/11/18 08:23:24;;;;;;;23.13;14.13;;;;;;;9.30;89.03;100788.06;5053765;28;20545;-76
2021/11/18 08:25:51;;;;;;;23.67;13.15;;;;;;;9.30;88.53;100777.31;5057145;28;20638;-76
2021/11/18 08:28:18;;;;;;;26.33;14.98;;;;;;;9.36;88.56;100772.59;5073324;28;20191;-74
2021/11/18 08:30:44;;;;;;;22.52;14.35;;;;;;;9.37;87.44;100774.34;5053853;28;20283;-76
2021/11/18 08:33:12;;;;;;;22.10;15.05;;;;;;;9.57;87.15;100776.34;5053208;28;20200;-76
2021/11/18 08:35:40;;;;;;;24.48;14.05;;;;;;;9.69;85.56;100777.69;5054521;28;20241;-75
2021/11/18 08:38:09;;;;;;;25.42;13.88;;;;;;;9.78;84.97;100773.81;5053115;28;20610;-76
2021/11/18 08:40:40;;;;;;;20.38;13.32;;;;;;;9.90;83.64;100776.03;5052919;28;20188;-76
2021/11/18 08:43:07;;;;;;;21.70;13.27;;;;;;;9.78;83.88;100777.38;5057093;28;20619;-76
2021/11/18 08:45:35;;;;;;;22.67;13.05;;;;;;;9.89;83.54;100768.91;5073104;28;20211;-74
2021/11/18 08:48:06;;;;;;;21.15;13.13;;;;;;;9.84;82.99;100775.41;5055074;28;20192;-75
2021/11/18 08:50:34;;;;;;;23.20;14.07;;;;;;;9.81;83.40;100781.75;5062285;28;20188;-75
2021/11/18 08:53:00;;;;;;;22.83;12.80;;;;;;;9.78;82.92;100782.75;5071882;28;20283;-76
2021/11/18 08:55:30;;;;;;;28.85;14.05;;;;;;;9.76;83.97;100789.13;5055516;28;20538;-76
2021/11/18 08:57:59;;;;;;;23.08;14.95;;;;;;;9.73;82.96;100784.72;5066084;28;20708;-75
2021/11/18 09:00:29;;;;;;;19.27;13.80;;;;;;;9.67;83.70;100790.31;5052780;28;20235;-75
2021/11/18 09:02:56;;;;;;;21.23;13.07;;;;;;;9.57;85.46;100802.34;5052973;28;20194;-76
2021/11/18 09:05:26;;;;;;;34.85;20.70;;;;;;;9.64;85.58;100795.81;5053215;28;20285;-76
2021/11/18 09:07:52;;;;;;;26.45;14.70;;;;;;;9.74;85.11;100805.31;5052364;28;20236;-76
2021/11/18 09:10:20;;;;;;;25.83;11.60;;;;;;;9.68;83.13;100805.53;5052437;28;20189;-76
2021/11/18 09:12:47;;;;;;;21.80;11.85;;;;;;;9.39;83.23;100810.09;5052740;28;20223;-76
2021/11/18 09:15:19;;;;;;;25.40;13.27;;;;;;;9.14;85.70;100817.25;5052447;28;20216;-75
2021/11/18 09:17:46;;;;;;;23.38;12.70;;;;;;;9.36;84.80;100810.22;5052902;28;20189;-76
2021/11/18 09:20:16;;;;;;;23.23;12.75;;;;;;;9.34;84.71;100809.41;5063986;28;20197;-76
2021/11/18 09:22:43;;;;;;;23.15;12.77;;;;;;;9.32;85.36;100811.25;5064617;28;20960;-76
2021/11/18 09:25:12;;;;;;;18.40;12.60;;;;;;;9.28;85.15;100816.78;5053079;28;20820;-75
2021/11/18 09:27:42;;;;;;;19.08;12.15;;;;;;;9.23;85.46;100813.38;5052705;28;20299;-75
2021/11/18 09:30:13;;;;;;;21.75;12.52;;;;;;;9.34;85.08;100806.72;5052538;28;20207;-74
2021/11/18 09:32:41;;;;;;;20.23;13.48;;;;;;;9.56;84.13;100808.66;5053671;28;20216;-76
2021/11/18 09:35:13;;;;;;;24.70;14.82;;;;;;;9.67;83.63;100811.84;5052164;28;20218;-76
2021/11/18 09:37:40;;;;;;;21.02;12.90;;;;;;;10.01;81.23;100813.31;5071318;28;20200;-75
2021/11/18 09:40:10;;;;;;;27.52;13.50;;;;;;;9.90;81.87;100823.59;5061530;28;20624;-75
2021/11/18 09:43:03;;;;;;;19.17;11.60;;;;;;;9.98;81.07;100816.13;5051877;28;20215;-74
2021/11/18 09:45:32;;;;;;;20.48;13.25;;;;;;;10.05;80.89;100817.66;5052326;28;20193;-75
2021/11/18 09:48:48;;;;;;;21.25;12.80;;;;;;;10.10;79.82;100825.56;5052301;28;20200;-75
2021/11/18 09:51:21;;;;;;;20.65;13.07;;;;;;;10.10;79.76;100821.06;5061019;28;20207;-74
2021/11/18 09:54:09;;;;;;;19.65;12.23;;;;;;;10.26;79.03;100820.50;5071494;28;20356;-75
2021/11/18 09:56:41;;;;;;;17.60;10.35;;;;;;;10.03;79.29;100828.47;5059737;28;20250;-76
2021/11/18 09:59:21;;;;;;;22.55;12.48;;;;;;;10.22;79.47;100831.38;5056133;28;20197;-75
2021/11/18 10:02:18;;;;;;;22.27;11.98;;;;;;;9.73;80.39;100846.59;5041632;28;20194;-75
2021/11/18 10:04:51;;;;;;;23.85;12.63;;;;;;;9.88;80.37;100845.19;5071699;28;20275;-75
2021/11/18 10:07:22;;;;;;;21.70;11.52;;;;;;;9.86;80.24;100841.69;5065585;28;20224;-76
2021/11/18 10:10:03;;;;;;;22.40;12.40;;;;;;;9.82;80.78;100843.59;5059979;28;20275;-76
2021/11/18 10:12:46;;;;;;;19.58;11.10;;;;;;;10.12;78.25;100839.84;5052558;28;20218;-76
2021/11/18 10:15:16;;;;;;;20.23;10.95;;;;;;;10.41;76.38;100826.22;5053993;28;20309;-76
2021/11/18 10:17:47;;;;;;;21.42;12.38;;;;;;;10.52;75.57;100824.94;5066227;28;20547;-75
2021/11/18 10:20:20;;;;;;;25.52;12.57;;;;;;;10.45;76.59;100824.28;5071443;28;20192;-75
2021/11/18 10:22:50;;;;;;;20.67;11.75;;;;;;;10.29;78.06;100823.09;5054794;28;20189;-76
2021/11/18 10:25:21;;;;;;;20.65;12.18;;;;;;;9.92;80.20;100830.69;5069648;28;20188;-76
2021/11/18 10:27:53;;;;;;;22.52;12.25;;;;;;;10.07;79.59;100831.94;5064266;28;20288;-76
2021/11/18 10:30:36;;;;;;;20.80;12.07;;;;;;;10.26;78.53;100824.06;5067227;28;20199;-74
2021/11/18 10:33:08;;;;;;;17.23;12.80;;;;;;;10.22;78.47;100817.94;5072079;28;20185;-76
2021/11/18 10:35:41;;;;;;;25.00;12.70;;;;;;;10.45;77.56;100816.22;5071676;28;20219;-76
2021/11/18 10:38:15;;;;;;;16.58;11.82;;;;;;;10.73;75.38;100824.09;5071050;28;20200;-76
2021/11/18 10:40:52;;;;;;;21.35;11.98;;;;;;;10.63;75.86;100809.25;5071269;28;20192;-75
2021/11/18 10:43:19;;;;;;;18.48;12.40;;;;;;;10.84;75.00;100805.69;5070535;28;20177;-75
2021/11/18 10:45:49;;;;;;;23.42;13.40;;;;;;;10.90;74.99;100800.97;5051436;28;20648;-76
2021/11/18 10:48:20;;;;;;;20.40;11.23;;;;;;;11.07;73.18;100807.44;5051524;28;20190;-75
2021/11/18 10:50:57;;;;;;;20.00;11.82;;;;;;;11.13;73.51;100802.75;5051171;28;20183;-75
2021/11/18 10:53:26;;;;;;;22.08;12.18;;;;;;;10.96;73.39;100803.44;5051322;28;20276;-75
2021/11/18 10:56:04;;;;;;;14.85;11.32;;;;;;;11.00;73.25;100808.63;5050946;28;20260;-75
2021/11/18 10:58:35;;;;;;;18.92;11.63;;;;;;;10.87;73.57;100801.13;5069390;28;20197;-75
2021/11/18 11:01:04;;;;;;;18.08;11.57;;;;;;;11.09;72.33;100801.13;5064865;28;20182;-75
2021/11/18 11:03:39;;;;;;;18.45;9.88;;;;;;;11.00;71.98;100811.34;5070541;28;20194;-74
2021/11/18 11:06:19;;;;;;;22.20;12.07;;;;;;;10.75;72.27;100810.56;5069036;28;20270;-75
2021/11/18 11:08:48;;;;;;;18.30;12.07;;;;;;;10.71;71.98;100808.94;5054132;28;20232;-76
2021/11/18 11:11:36;;;;;;;21.27;11.35;;;;;;;10.85;71.79;100793.97;5071370;28;20198;-76
2021/11/18 11:14:25;;;;;;;14.55;10.38;;;;;;;10.83;71.18;100777.00;5064241;28;20194;-75
2021/11/18 11:17:18;;;;;;;17.88;10.75;;;;;;;10.77;70.95;100779.06;5073758;28;20216;-76
2021/11/18 11:19:51;;;;;;;20.20;11.85;;;;;;;11.36;69.40;100786.50;5051757;28;20209;-75
2021/11/18 11:22:25;;;;;;;21.35;11.70;;;;;;;11.71;67.92;100775.97;5066752;28;20190;-75
2021/11/18 11:25:27;;;;;;;15.60;9.85;;;;;;;11.43;67.58;100768.22;5059780;28;20219;-75